Time;durP1;ratioP1;P1;durP2;ratioP2;P2;SDS_P1;SDS_P2;PMS_P1;PMS_P2;Temp;Humidity;BMP_temperature;BMP_pressure;BME280_temperature;BME280_humidity;BME280_pressure;Samples;Min_cycle;Max_cycle;Signal;HPM_P1;HPM_P2
2023/09/19 00:00:12;;;;;;;4.37;1.80;;;17.30;99.90;;;;;;4976974;28;20470;-78
2023/09/19 00:02:39;;;;;;;6.60;2.60;;;17.40;99.90;;;;;;4968232;28;20468;-78
2023/09/19 00:05:07;;;;;;;7.27;2.83;;;17.30;99.90;;;;;;4977975;28;20467;-78
2023/09/19 00:07:36;;;;;;;8.50;2.10;;;17.30;99.90;;;;;;4974911;28;20472;-77
2023/09/19 00:10:04;;;;;;;8.17;2.30;;;17.20;99.90;;;;;;4975731;28;20492;-78
2023/09/19 00:12:31;;;;;;;9.60;2.30;;;17.20;99.90;;;;;;4975447;28;20550;-77
2023/09/19 00:15:00;;;;;;;6.20;2.10;;;17.20;99.90;;;;;;4975903;28;20506;-78
2023/09/19 00:17:30;;;;;;;11.10;5.40;;;17.20;99.90;;;;;;4975154;28;20472;-77
2023/09/19 00:19:57;;;;;;;6.70;2.10;;;17.20;99.90;;;;;;4974828;28;21033;-77
2023/09/19 00:22:25;;;;;;;6.03;2.00;;;17.10;99.90;;;;;;4966021;28;20447;-78
2023/09/19 00:24:52;;;;;;;6.87;2.37;;;17.00;99.90;;;;;;4974925;28;20459;-77
2023/09/19 00:27:19;;;;;;;8.00;2.50;;;17.10;99.90;;;;;;4973946;28;20464;-77
2023/09/19 00:29:46;;;;;;;4.47;2.33;;;17.00;99.90;;;;;;4973746;28;21071;-78
2023/09/19 00:32:14;;;;;;;3.20;1.60;;;17.00;99.90;;;;;;4974592;28;20580;-77
2023/09/19 00:34:42;;;;;;;6.00;2.07;;;17.00;99.90;;;;;;4974131;28;20525;-77
2023/09/19 00:37:11;;;;;;;4.00;1.80;;;17.10;99.90;;;;;;4974485;28;20457;-78
2023/09/19 00:39:38;;;;;;;7.40;2.43;;;17.00;99.90;;;;;;4966769;28;20558;-77
2023/09/19 00:42:05;;;;;;;7.73;2.13;;;16.90;99.90;;;;;;4974690;28;20880;-78
2023/09/19 00:44:34;;;;;;;4.50;2.00;;;16.90;99.90;;;;;;4976217;28;20466;-77
2023/09/19 00:47:02;;;;;;;5.27;2.13;;;16.70;99.90;;;;;;4975057;28;20487;-78
2023/09/19 00:49:30;;;;;;;5.90;2.03;;;16.90;99.90;;;;;;4975356;28;20954;-78
2023/09/19 00:51:57;;;;;;;6.03;2.53;;;16.70;99.90;;;;;;4975217;28;20494;-78
2023/09/19 00:54:25;;;;;;;7.03;2.10;;;16.70;99.90;;;;;;4974809;28;20466;-78
2023/09/19 00:56:54;;;;;;;9.57;2.93;;;16.70;99.90;;;;;;4973645;28;20461;-77
2023/09/19 00:59:22;;;;;;;6.37;2.37;;;16.70;99.90;;;;;;4975611;28;20481;-78
2023/09/19 01:01:53;;;;;;;5.20;2.17;;;16.60;99.90;;;;;;4974627;28;20550;-78
2023/09/19 01:04:20;;;;;;;6.97;2.30;;;16.60;99.90;;;;;;4974488;28;20469;-78
2023/09/19 01:06:52;;;;;;;14.07;2.83;;;16.60;99.90;;;;;;4974688;28;20483;-78
2023/09/19 01:09:19;;;;;;;4.73;1.60;;;16.50;99.90;;;;;;4974577;28;20491;-79
2023/09/19 01:11:50;;;;;;;7.33;2.47;;;16.50;99.90;;;;;;4975257;28;20474;-77
2023/09/19 01:14:31;;;;;;;7.33;2.30;;;16.50;99.90;;;;;;4974333;28;20494;-78
2023/09/19 01:17:05;;;;;;;7.10;2.47;;;16.60;99.90;;;;;;4975284;28;20470;-78
2023/09/19 01:20:15;;;;;;;9.47;2.00;;;16.50;99.90;;;;;;4975127;28;20491;-78
2023/09/19 01:22:56;;;;;;;4.87;1.90;;;16.60;99.90;;;;;;4963419;28;20463;-80
2023/09/19 01:26:02;;;;;;;11.87;2.70;;;16.50;99.90;;;;;;4975509;28;20848;-80
2023/09/19 01:28:36;;;;;;;6.83;2.87;;;16.40;99.90;;;;;;4974922;28;20479;-80
2023/09/19 01:31:09;;;;;;;7.70;2.33;;;16.40;99.90;;;;;;4975762;28;20462;-78
2023/09/19 01:34:00;;;;;;;7.70;2.40;;;16.40;99.90;;;;;;4974722;28;20490;-79
2023/09/19 01:36:35;;;;;;;6.27;2.23;;;16.40;99.90;;;;;;4974289;28;20552;-80
2023/09/19 01:39:05;;;;;;;4.43;2.07;;;16.40;99.90;;;;;;4975206;28;20521;-80
2023/09/19 01:42:04;;;;;;;9.80;2.30;;;16.40;99.90;;;;;;4975205;28;20464;-80
2023/09/19 01:44:41;;;;;;;10.43;2.80;;;16.30;99.90;;;;;;4930598;28;20549;-80
2023/09/19 01:47:19;;;;;;;8.33;3.00;;;16.30;99.90;;;;;;4981130;28;20908;-80
2023/09/19 01:49:56;;;;;;;4.90;2.17;;;16.30;99.90;;;;;;4970939;28;20558;-81
2023/09/19 01:52:27;;;;;;;5.47;2.17;;;16.40;99.90;;;;;;4977557;28;20498;-79
2023/09/19 01:54:57;;;;;;;6.47;2.73;;;16.30;99.90;;;;;;4978823;28;20519;-79
2023/09/19 01:57:29;;;;;;;7.50;2.13;;;16.30;99.90;;;;;;4976133;28;20972;-80
2023/09/19 02:00:06;;;;;;;5.53;2.07;;;16.20;99.90;;;;;;4979499;28;20479;-80
2023/09/19 02:02:36;;;;;;;5.87;1.97;;;16.20;99.90;;;;;;4978008;28;20483;-78
2023/09/19 02:05:03;;;;;;;6.27;2.50;;;16.20;99.90;;;;;;4977209;28;20451;-79
2023/09/19 02:07:31;;;;;;;5.87;2.27;;;16.20;99.90;;;;;;4974888;28;20494;-80
2023/09/19 02:09:59;;;;;;;7.40;2.00;;;16.20;99.90;;;;;;4975296;28;20505;-80
2023/09/19 02:12:26;;;;;;;9.13;2.60;;;16.20;99.90;;;;;;4976227;28;20494;-80
2023/09/19 02:14:52;;;;;;;11.23;3.03;;;16.20;99.90;;;;;;4976933;28;20458;-79
2023/09/19 02:17:19;;;;;;;7.37;2.20;;;16.10;99.90;;;;;;4975677;28;20466;-77
2023/09/19 02:19:47;;;;;;;7.30;2.67;;;16.10;99.90;;;;;;4976854;28;20490;-79
2023/09/19 02:22:16;;;;;;;5.93;1.77;;;16.10;99.90;;;;;;4979901;28;20467;-78
2023/09/19 02:24:43;;;;;;;6.83;2.43;;;16.20;99.90;;;;;;4980162;28;20555;-78
2023/09/19 02:27:12;;;;;;;5.80;1.80;;;16.20;99.90;;;;;;4978067;28;20490;-80
2023/09/19 02:29:39;;;;;;;10.60;1.97;;;16.10;99.90;;;;;;4972482;28;20483;-80
2023/09/19 02:32:06;;;;;;;7.20;1.90;;;16.00;99.90;;;;;;4978937;28;20463;-78
2023/09/19 02:34:36;;;;;;;6.00;2.20;;;16.10;99.90;;;;;;4977427;28;20558;-78
2023/09/19 02:37:04;;;;;;;16.37;2.90;;;16.00;99.90;;;;;;4979834;28;20519;-80
2023/09/19 02:39:31;;;;;;;8.20;1.90;;;16.00;99.90;;;;;;4980636;28;20554;-79
2023/09/19 02:41:58;;;;;;;6.50;2.00;;;16.10;99.90;;;;;;4977594;28;20502;-79
2023/09/19 02:44:25;;;;;;;5.30;2.03;;;16.10;99.90;;;;;;4977288;28;20456;-79
2023/09/19 02:46:52;;;;;;;5.03;1.97;;;16.20;99.90;;;;;;4979174;28;20498;-79
2023/09/19 02:49:19;;;;;;;8.03;2.03;;;16.10;99.90;;;;;;4977761;28;20537;-80
2023/09/19 02:51:47;;;;;;;5.77;2.13;;;16.10;99.90;;;;;;4977823;28;20452;-79
2023/09/19 02:54:16;;;;;;;7.40;2.13;;;16.10;99.90;;;;;;4978188;28;20537;-78
2023/09/19 02:56:43;;;;;;;7.07;2.37;;;16.00;99.90;;;;;;4979354;28;20459;-80
2023/09/19 02:59:10;;;;;;;8.97;2.50;;;16.10;99.90;;;;;;4978973;28;20491;-78
2023/09/19 03:01:38;;;;;;;13.00;3.50;;;16.10;99.90;;;;;;4979180;28;20992;-79
2023/09/19 03:04:06;;;;;;;7.07;2.20;;;16.00;99.90;;;;;;4978098;28;20483;-80
2023/09/19 03:06:33;;;;;;;6.50;2.30;;;16.00;99.90;;;;;;4978395;28;20487;-80
2023/09/19 03:09:00;;;;;;;6.03;1.93;;;16.00;99.90;;;;;;4978672;28;20467;-80
2023/09/19 03:11:29;;;;;;;10.53;2.37;;;16.00;99.90;;;;;;4977540;28;20494;-80
2023/09/19 03:13:56;;;;;;;4.53;2.00;;;16.00;99.90;;;;;;4978670;28;20488;-80
2023/09/19 03:16:23;;;;;;;6.40;2.17;;;16.00;99.90;;;;;;4976758;28;20452;-80
2023/09/19 03:18:50;;;;;;;7.87;2.40;;;16.00;99.90;;;;;;4974655;28;20475;-80
2023/09/19 03:21:17;;;;;;;8.80;2.10;;;16.00;99.90;;;;;;4974117;28;20481;-75
2023/09/19 03:23:45;;;;;;;7.20;2.40;;;16.00;99.90;;;;;;4973817;28;20487;-78
2023/09/19 03:26:14;;;;;;;4.33;1.90;;;15.90;99.90;;;;;;4976174;28;20486;-78
2023/09/19 03:28:42;;;;;;;10.30;2.50;;;15.90;99.90;;;;;;4975293;28;20578;-79
2023/09/19 03:31:10;;;;;;;9.07;2.57;;;15.90;99.90;;;;;;4974849;28;20459;-79
2023/09/19 03:33:37;;;;;;;6.60;2.80;;;15.90;99.90;;;;;;4974384;28;20495;-79
2023/09/19 03:36:05;;;;;;;8.17;2.40;;;16.00;99.90;;;;;;4974644;28;20463;-80
2023/09/19 03:38:33;;;;;;;6.43;1.93;;;15.90;76.70;;;;;;4978243;28;20521;-79
2023/09/19 03:41:00;;;;;;;5.90;1.80;;;16.00;82.60;;;;;;4980633;28;20448;-79
2023/09/19 03:43:27;;;;;;;8.13;2.20;;;16.00;71.40;;;;;;4979099;28;20498;-79
2023/09/19 03:45:55;;;;;;;9.70;3.17;;;16.00;90.90;;;;;;4978686;28;20954;-78
2023/09/19 03:48:22;;;;;;;9.33;2.43;;;15.90;35.20;;;;;;4978715;28;20483;-78
2023/09/19 03:50:49;;;;;;;5.60;2.33;;;15.90;83.20;;;;;;4977963;28;20467;-77
2023/09/19 03:53:16;;;;;;;7.10;2.40;;;15.90;66.20;;;;;;4973389;28;20483;-78
2023/09/19 03:55:45;;;;;;;9.47;2.70;;;15.90;49.80;;;;;;4977402;28;20482;-77
2023/09/19 03:58:12;;;;;;;8.47;2.20;;;15.80;51.90;;;;;;4977291;28;21026;-77
2023/09/19 04:00:39;;;;;;;7.03;1.70;;;15.70;28.10;;;;;;4977204;28;20455;-78
2023/09/19 04:03:07;;;;;;;6.17;2.33;;;15.80;93.30;;;;;;4977384;28;20455;-77
2023/09/19 04:05:34;;;;;;;5.23;1.80;;;15.80;59.20;;;;;;4977347;28;20467;-77
2023/09/19 04:08:01;;;;;;;10.37;2.60;;;15.90;99.90;;;;;;4972067;28;20471;-78
2023/09/19 04:10:28;;;;;;;7.37;2.40;;;15.80;92.50;;;;;;4982856;28;20467;-78
2023/09/19 04:12:55;;;;;;;5.60;1.70;;;15.70;57.10;;;;;;4983331;28;20475;-77
2023/09/19 04:15:23;;;;;;;7.90;2.33;;;15.70;38.80;;;;;;4977688;28;20457;-78
2023/09/19 04:17:50;;;;;;;5.43;2.10;;;15.70;55.10;;;;;;4978328;28;20455;-78
2023/09/19 04:20:19;;;;;;;8.73;2.53;;;15.70;43.10;;;;;;4975471;28;20963;-77
2023/09/19 04:22:46;;;;;;;8.97;1.73;;;15.70;65.20;;;;;;4976087;28;20472;-76
2023/09/19 04:25:13;;;;;;;7.00;2.13;;;15.80;50.80;;;;;;4977649;28;20466;-78
2023/09/19 04:27:41;;;;;;;4.23;1.60;;;15.80;41.10;;;;;;4977164;28;20483;-78
2023/09/19 04:30:11;;;;;;;8.43;2.37;;;15.80;16.60;;;;;;4976375;28;20479;-78
2023/09/19 04:32:42;;;;;;;7.07;1.80;;;15.80;31.60;;;;;;4968385;28;20454;-78
2023/09/19 04:35:10;;;;;;;4.30;1.70;;;15.80;34.90;;;;;;4977389;28;20478;-78
2023/09/19 04:37:40;;;;;;;8.50;2.23;;;15.80;40.70;;;;;;4975058;28;20500;-76
2023/09/19 04:40:12;;;;;;;4.73;1.67;;;15.80;54.80;;;;;;4975505;28;21065;-77
2023/09/19 04:42:40;;;;;;;8.50;2.27;;;15.80;53.90;;;;;;4976964;28;20558;-77
2023/09/19 04:45:09;;;;;;;8.20;2.27;;;15.80;55.20;;;;;;4977471;28;20483;-78
2023/09/19 04:47:38;;;;;;;7.00;2.07;;;15.80;56.10;;;;;;4975514;28;20486;-79
2023/09/19 04:50:11;;;;;;;7.40;2.47;;;15.70;59.20;;;;;;4976073;28;20486;-80
2023/09/19 04:52:41;;;;;;;6.80;2.20;;;15.70;72.80;;;;;;4974097;28;20460;-78
2023/09/19 04:55:10;;;;;;;7.73;2.33;;;15.70;76.50;;;;;;4983259;28;20628;-77
2023/09/19 04:57:36;;;;;;;5.50;2.20;;;15.70;96.10;;;;;;4980122;28;20535;-79
2023/09/19 05:00:06;;;;;;;10.07;2.67;;;15.80;57.10;;;;;;4983540;28;20613;-78
2023/09/19 05:02:34;;;;;;;8.37;2.33;;;15.70;53.40;;;;;;4980845;28;20833;-78
2023/09/19 05:05:01;;;;;;;4.33;1.83;;;15.80;61.30;;;;;;4983646;28;20486;-77
2023/09/19 05:07:28;;;;;;;6.97;2.07;;;15.80;71.70;;;;;;4982310;28;20468;-78
2023/09/19 05:09:56;;;;;;;7.00;1.97;;;15.80;62.50;;;;;;4972160;28;20980;-77
2023/09/19 05:12:23;;;;;;;7.17;1.93;;;15.80;91.70;;;;;;4972237;28;20475;-78
2023/09/19 05:14:50;;;;;;;9.23;3.10;;;15.80;56.40;;;;;;4974468;28;20484;-76
2023/09/19 05:17:17;;;;;;;6.37;2.57;;;15.70;69.10;;;;;;4972516;28;20463;-77
2023/09/19 05:19:45;;;;;;;6.00;1.77;;;15.70;95.80;;;;;;4970794;28;20481;-77
2023/09/19 05:22:12;;;;;;;4.27;2.10;;;15.80;99.90;;;;;;4975696;28;21005;-76
2023/09/19 05:24:39;;;;;;;6.40;2.03;;;15.70;99.90;;;;;;4974436;28;20964;-78
2023/09/19 05:27:08;;;;;;;8.23;3.00;;;15.70;99.90;;;;;;4973124;28;20459;-79
2023/09/19 05:29:34;;;;;;;7.60;2.60;;;15.70;98.90;;;;;;4969348;28;20490;-77
2023/09/19 05:32:01;;;;;;;6.70;2.50;;;15.70;98.70;;;;;;4967960;28;20459;-77
2023/09/19 05:34:30;;;;;;;6.80;2.23;;;15.80;99.90;;;;;;4974580;28;20493;-77
2023/09/19 05:36:56;;;;;;;9.00;2.37;;;15.80;99.90;;;;;;4978168;28;20457;-77
2023/09/19 05:39:23;;;;;;;6.77;2.03;;;15.80;98.60;;;;;;4975733;28;20852;-77
2023/09/19 05:41:50;;;;;;;5.93;2.00;;;15.80;98.10;;;;;;4971374;28;20448;-77
2023/09/19 05:44:18;;;;;;;5.83;2.10;;;15.70;91.30;;;;;;4977311;28;20460;-77
2023/09/19 05:46:46;;;;;;;6.20;2.43;;;15.70;99.90;;;;;;4973191;28;20985;-75
2023/09/19 05:49:13;;;;;;;8.60;2.37;;;15.80;99.90;;;;;;4974681;28;20581;-77
2023/09/19 05:51:39;;;;;;;10.30;2.53;;;15.80;91.10;;;;;;4980762;28;20455;-80
2023/09/19 05:54:06;;;;;;;7.60;1.70;;;15.80;75.20;;;;;;4977210;28;20489;-77
2023/09/19 05:56:33;;;;;;;7.77;2.40;;;15.80;98.40;;;;;;4975866;28;20985;-76
2023/09/19 05:59:00;;;;;;;11.03;2.83;;;15.80;98.90;;;;;;4973636;28;20475;-77
2023/09/19 06:01:28;;;;;;;7.00;2.33;;;15.90;99.90;;;;;;4976022;28;20456;-76
2023/09/19 06:03:55;;;;;;;11.13;2.70;;;15.90;58.80;;;;;;4980859;28;20821;-77
2023/09/19 06:06:24;;;;;;;11.27;2.17;;;15.90;84.50;;;;;;4977589;28;20460;-76
2023/09/19 06:08:51;;;;;;;8.23;2.47;;;16.00;91.40;;;;;;4968696;28;20475;-77
2023/09/19 06:11:20;;;;;;;7.40;1.90;;;15.90;44.60;;;;;;4972052;28;20466;-77
2023/09/19 06:13:47;;;;;;;5.37;2.30;;;15.90;50.30;;;;;;4972745;28;20491;-77
2023/09/19 06:16:14;;;;;;;5.67;1.93;;;16.00;74.20;;;;;;4971302;28;20844;-77
2023/09/19 06:18:42;;;;;;;8.90;3.50;;;16.00;46.00;;;;;;4972222;28;20511;-77
2023/09/19 06:21:09;;;;;;;7.70;2.30;;;16.10;26.00;;;;;;4968790;28;20550;-77
2023/09/19 06:23:36;;;;;;;7.23;2.23;;;16.10;48.70;;;;;;4975926;28;20842;-77
2023/09/19 06:26:06;;;;;;;8.70;3.07;;;16.00;14.90;;;;;;4976891;28;20541;-77
2023/09/19 06:28:33;;;;;;;8.67;2.27;;;16.00;31.20;;;;;;4971428;28;20489;-77
2023/09/19 06:31:00;;;;;;;7.10;2.23;;;16.00;24.80;;;;;;4972314;28;20979;-77
2023/09/19 06:33:27;;;;;;;7.10;3.00;;;16.10;52.20;;;;;;4973266;28;20462;-77
2023/09/19 06:35:59;;;;;;;8.87;2.50;;;16.10;36.10;;;;;;4970641;28;20454;-77
2023/09/19 06:38:26;;;;;;;8.90;2.67;;;16.10;42.40;;;;;;4973284;28;20501;-78
2023/09/19 06:40:54;;;;;;;7.73;2.43;;;16.10;24.00;;;;;;4978142;28;20538;-79
2023/09/19 06:43:21;;;;;;;7.40;2.00;;;16.20;20.00;;;;;;4972335;28;20463;-79
2023/09/19 06:45:47;;;;;;;8.17;2.00;;;16.30;99.90;;;;;;4973998;28;20971;-79
2023/09/19 06:48:15;;;;;;;7.43;2.40;;;16.30;57.00;;;;;;4973077;28;20542;-80
2023/09/19 06:50:44;;;;;;;6.50;2.77;;;16.30;99.90;;;;;;4975624;28;20465;-80
2023/09/19 06:53:12;;;;;;;6.87;2.37;;;16.40;43.10;;;;;;4976049;28;20458;-80
2023/09/19 06:55:39;;;;;;;6.37;2.07;;;16.50;18.50;;;;;;4973235;28;20575;-78
2023/09/19 06:58:06;;;;;;;7.80;2.33;;;16.40;1.00;;;;;;4972800;28;20463;-80
2023/09/19 07:00:36;;;;;;;9.07;2.50;;;16.40;6.30;;;;;;4976715;28;20893;-79
2023/09/19 07:03:08;;;;;;;5.03;2.17;;;16.50;24.70;;;;;;4972458;28;20468;-79
2023/09/19 07:05:37;;;;;;;4.50;1.90;;;16.60;2.10;;;;;;4977592;28;20568;-79
2023/09/19 07:08:05;;;;;;;7.50;3.00;;;16.50;1.00;;;;;;4979667;28;20574;-80
2023/09/19 07:10:34;;;;;;;8.00;1.73;;;16.60;20.60;;;;;;4975087;28;20542;-79
2023/09/19 07:13:02;;;;;;;6.57;1.93;;;16.70;26.70;;;;;;4975856;28;20902;-79
2023/09/19 07:15:30;;;;;;;11.90;2.87;;;16.60;24.20;;;;;;4976348;28;20496;-79
2023/09/19 07:17:58;;;;;;;9.70;2.40;;;16.60;14.30;;;;;;4977227;28;20845;-79
2023/09/19 07:20:26;;;;;;;6.27;2.07;;;16.50;1.00;;;;;;4977246;28;20555;-79
2023/09/19 07:22:54;;;;;;;9.97;2.60;;;16.50;1.00;;;;;;4979572;28;20464;-79
2023/09/19 07:25:21;;;;;;;4.70;2.50;;;16.50;2.70;;;;;;4978638;28;20464;-79
2023/09/19 07:27:51;;;;;;;10.17;2.90;;;16.60;14.00;;;;;;4980631;28;20597;-79
2023/09/19 07:30:17;;;;;;;5.70;1.80;;;16.70;22.70;;;;;;4972223;28;20524;-77
2023/09/19 07:32:44;;;;;;;5.80;1.70;;;16.80;4.50;;;;;;4975050;28;20560;-78
2023/09/19 07:35:12;;;;;;;8.97;2.20;;;16.90;14.20;;;;;;4974819;28;20932;-80
2023/09/19 07:37:38;;;;;;;7.10;2.53;;;16.90;55.80;;;;;;4971336;28;20462;-78
2023/09/19 07:40:07;;;;;;;9.30;2.70;;;16.90;6.80;;;;;;4968896;28;20487;-83
2023/09/19 07:42:35;;;;;;;9.57;2.57;;;16.90;1.00;;;;;;4968838;28;20839;-78
2023/09/19 07:45:03;;;;;;;7.73;2.60;;;16.90;1.00;;;;;;4970599;28;20458;-79
2023/09/19 07:47:32;;;;;;;7.80;3.70;;;16.90;1.00;;;;;;4973032;28;20978;-76
2023/09/19 07:49:59;;;;;;;9.17;2.50;;;17.00;1.00;;;;;;4969033;28;20490;-79
2023/09/19 07:52:27;;;;;;;5.90;1.80;;;16.90;1.30;;;;;;4972786;28;20465;-79
2023/09/19 07:54:54;;;;;;;6.23;2.90;;;16.90;3.00;;;;;;4970990;28;20491;-80
2023/09/19 07:57:21;;;;;;;10.07;2.33;;;17.00;17.70;;;;;;4968922;28;21136;-79
2023/09/19 07:59:48;;;;;;;9.97;2.70;;;17.00;1.00;;;;;;4975337;28;20485;-80
2023/09/19 08:02:16;;;;;;;10.70;2.53;;;17.10;3.70;;;;;;4975256;28;20460;-79
2023/09/19 08:04:43;;;;;;;8.73;2.37;;;17.20;24.20;;;;;;4972350;28;20459;-79
2023/09/19 08:07:11;;;;;;;9.00;2.20;;;17.10;1.00;;;;;;4967858;28;20457;-79
2023/09/19 08:09:38;;;;;;;6.77;2.10;;;17.20;1.00;;;;;;4962903;28;20488;-78
2023/09/19 08:12:07;;;;;;;9.30;2.63;;;17.20;1.00;;;;;;4976119;28;20462;-79
2023/09/19 08:14:34;;;;;;;8.77;2.90;;;17.20;1.00;;;;;;4968070;28;20581;-80
2023/09/19 08:17:01;;;;;;;9.57;2.40;;;17.30;1.00;;;;;;4973159;28;20458;-80
2023/09/19 08:19:31;;;;;;;6.57;2.73;;;17.30;1.00;;;;;;4969825;28;20491;-80
2023/09/19 08:21:58;;;;;;;5.90;2.00;;;17.30;1.00;;;;;;4973558;28;21000;-80
2023/09/19 08:24:27;;;;;;;11.53;2.83;;;17.40;8.20;;;;;;4971934;28;20458;-80
2023/09/19 08:26:55;;;;;;;5.70;2.13;;;17.40;1.00;;;;;;4968643;28;20465;-79
2023/09/19 08:29:27;;;;;;;8.97;2.57;;;17.40;1.00;;;;;;4970732;28;20517;-80
2023/09/19 08:31:54;;;;;;;12.37;2.23;;;17.40;2.90;;;;;;4970172;28;20461;-79
2023/09/19 08:34:22;;;;;;;10.47;2.60;;;17.40;28.90;;;;;;4965613;28;20488;-79
2023/09/19 08:36:52;;;;;;;9.70;2.93;;;17.50;1.00;;;;;;4969470;28;20455;-78
2023/09/19 08:39:19;;;;;;;15.80;2.70;;;17.40;8.40;;;;;;4966434;28;20505;-79
2023/09/19 08:41:46;;;;;;;7.03;2.70;;;17.60;1.00;;;;;;4969288;28;20455;-80
2023/09/19 08:44:13;;;;;;;7.50;2.00;;;17.70;1.00;;;;;;4967767;28;20464;-83
2023/09/19 08:46:42;;;;;;;7.90;2.63;;;17.70;1.00;;;;;;4976882;28;20458;-77
2023/09/19 08:49:19;;;;;;;8.47;3.37;;;17.70;1.00;;;;;;4971092;28;20910;-79
2023/09/19 08:51:46;;;;;;;9.73;2.70;;;17.70;1.00;;;;;;4966462;28;20557;-80
2023/09/19 08:54:23;;;;;;;8.03;2.43;;;17.80;1.00;;;;;;4969620;28;20533;-78
2023/09/19 08:56:52;;;;;;;11.13;2.53;;;17.90;1.00;;;;;;4974631;28;20458;-79
2023/09/19 08:59:25;;;;;;;5.53;2.00;;;18.00;1.00;;;;;;4966521;28;20569;-78
2023/09/19 09:01:53;;;;;;;9.90;3.20;;;17.90;1.00;;;;;;4967103;28;20454;-79
2023/09/19 09:04:20;;;;;;;13.13;2.60;;;18.10;1.00;;;;;;4969849;28;20460;-78
2023/09/19 09:06:48;;;;;;;10.33;2.40;;;18.20;1.00;;;;;;4963670;28;20451;-79
2023/09/19 09:09:16;;;;;;;7.00;2.80;;;18.10;1.00;;;;;;4969549;28;20470;-78
2023/09/19 09:11:43;;;;;;;8.60;2.20;;;18.10;1.00;;;;;;4962004;28;20462;-79
2023/09/19 09:14:11;;;;;;;8.03;2.30;;;18.10;1.00;;;;;;4970503;28;20833;-79
2023/09/19 09:16:38;;;;;;;12.07;3.30;;;18.20;1.00;;;;;;4968963;28;20860;-79
2023/09/19 09:19:06;;;;;;;14.33;2.53;;;18.30;1.00;;;;;;4960075;28;20543;-80
2023/09/19 09:21:35;;;;;;;5.07;1.90;;;18.30;1.00;;;;;;4969597;28;20473;-79
2023/09/19 09:24:33;;;;;;;5.47;2.10;;;18.40;1.00;;;;;;4965729;28;20882;-79
2023/09/19 09:27:02;;;;;;;13.40;2.70;;;18.50;1.00;;;;;;4970490;28;20545;-77
2023/09/19 09:29:49;;;;;;;8.33;2.30;;;18.60;99.90;;;;;;4952101;28;20485;-79
2023/09/19 09:32:23;;;;;;;14.10;2.33;;;18.70;1.00;;;;;;4971785;28;20471;-80
2023/09/19 09:34:54;;;;;;;6.70;2.37;;;18.70;99.90;;;;;;4966382;28;20484;-78
2023/09/19 09:37:22;;;;;;;9.33;2.30;;;18.70;99.90;;;;;;4962076;28;20848;-79
2023/09/19 09:39:55;;;;;;;12.33;2.70;;;18.90;1.00;;;;;;4965130;28;20490;-82
2023/09/19 09:42:35;;;;;;;6.23;2.57;;;18.90;99.90;;;;;;4971412;28;20521;-79
2023/09/19 09:45:28;;;;;;;11.80;3.50;;;19.00;99.90;;;;;;4968761;28;20531;-79
2023/09/19 09:47:55;;;;;;;5.00;2.30;;;18.90;99.90;;;;;;4968959;28;21017;-79
2023/09/19 09:50:37;;;;;;;5.27;2.17;;;19.00;99.90;;;;;;4965788;28;20452;-79
2023/09/19 09:53:07;;;;;;;4.63;1.77;;;18.90;1.00;;;;;;4973374;28;20451;-79
2023/09/19 09:55:59;;;;;;;9.97;2.47;;;19.10;1.00;;;;;;4971253;28;20487;-80
2023/09/19 09:58:29;;;;;;;8.20;2.23;;;19.00;99.90;;;;;;4970764;28;21028;-79
2023/09/19 10:00:57;;;;;;;7.37;2.97;;;19.20;99.90;;;;;;4971251;28;20474;-78
2023/09/19 10:03:33;;;;;;;10.40;2.20;;;19.30;99.90;;;;;;4973728;28;20502;-79
2023/09/19 10:06:02;;;;;;;8.53;2.80;;;19.50;99.90;;;;;;4975235;28;20452;-79
2023/09/19 10:08:31;;;;;;;8.40;2.57;;;19.70;1.00;;;;;;4975170;28;20502;-78
2023/09/19 10:11:05;;;;;;;12.47;2.90;;;20.00;99.90;;;;;;4975112;28;20498;-77
2023/09/19 10:13:35;;;;;;;9.90;2.67;;;19.90;1.00;;;;;;4976370;28;20466;-79
2023/09/19 10:16:10;;;;;;;7.83;2.23;;;20.00;1.00;;;;;;4976937;28;20574;-78
2023/09/19 10:18:39;;;;;;;8.87;2.10;;;19.80;1.00;;;;;;4974826;28;20507;-79
2023/09/19 10:21:08;;;;;;;9.23;3.07;;;19.90;99.90;;;;;;4975612;28;20615;-78
2023/09/19 10:23:36;;;;;;;13.40;3.83;;;20.20;78.10;;;;;;4975480;28;20459;-79
2023/09/19 10:26:08;;;;;;;11.07;2.60;;;20.80;1.00;;;;;;4976725;28;20487;-79
2023/09/19 10:28:38;;;;;;;9.50;2.97;;;21.30;99.90;;;;;;4970380;28;20482;-78
2023/09/19 10:31:09;;;;;;;7.27;2.33;;;21.70;1.00;;;;;;4961452;28;20466;-79
2023/09/19 10:33:38;;;;;;;8.13;2.67;;;21.80;99.90;;;;;;4972400;28;20455;-79
2023/09/19 10:36:06;;;;;;;7.33;2.17;;;21.70;99.90;;;;;;4968005;28;20496;-79
2023/09/19 10:38:36;;;;;;;6.80;2.37;;;21.90;99.90;;;;;;4981257;28;20539;-78
2023/09/19 10:41:06;;;;;;;7.33;2.30;;;22.00;1.00;;;;;;4976052;28;20546;-79
2023/09/19 10:43:35;;;;;;;5.90;2.13;;;22.20;1.00;;;;;;4976027;28;20467;-78
2023/09/19 10:46:06;;;;;;;6.43;2.23;;;22.20;1.00;;;;;;4976427;28;20487;-80
2023/09/19 10:48:32;;;;;;;7.00;2.00;;;22.30;99.90;;;;;;4979928;28;20514;-78
2023/09/19 10:51:05;;;;;;;7.83;3.37;;;22.10;99.90;;;;;;4984435;28;20491;-79
2023/09/19 10:53:43;;;;;;;5.20;1.90;;;22.10;99.90;;;;;;4978481;28;20451;-82
2023/09/19 10:56:18;;;;;;;7.10;2.30;;;22.50;99.90;;;;;;4979015;28;20582;-80
2023/09/19 10:58:45;;;;;;;8.87;2.87;;;22.50;28.50;;;;;;4978961;28;20479;-78
2023/09/19 11:01:13;;;;;;;10.57;3.57;;;22.70;1.00;;;;;;4966455;28;20452;-78
2023/09/19 11:03:43;;;;;;;7.37;3.07;;;22.80;1.00;;;;;;4972493;28;20521;-79
2023/09/19 11:06:13;;;;;;;5.27;1.83;;;22.90;1.00;;;;;;4976133;28;20451;-78
2023/09/19 11:09:21;;;;;;;6.17;2.20;;;22.60;1.00;;;;;;4977773;28;20483;-79
2023/09/19 11:11:52;;;;;;;6.53;2.17;;;22.70;1.00;;;;;;4975266;28;20908;-79
2023/09/19 11:14:43;;;;;;;7.17;2.47;;;22.90;1.00;;;;;;4979558;28;20454;-79
2023/09/19 11:17:46;;;;;;;4.80;1.83;;;23.20;1.00;;;;;;4977290;28;20935;-79
2023/09/19 11:20:39;;;;;;;8.07;2.20;;;23.30;1.00;;;;;;4973859;28;20451;-76
2023/09/19 11:23:22;;;;;;;10.17;2.57;;;23.60;1.00;;;;;;4975776;28;20470;-76
2023/09/19 11:25:54;;;;;;;5.90;2.30;;;23.90;1.00;;;;;;4974290;28;20904;-76
2023/09/19 11:28:38;;;;;;;7.00;2.57;;;24.00;1.00;;;;;;4972416;28;20533;-77
2023/09/19 11:31:53;;;;;;;8.63;2.87;;;24.00;1.00;;;;;;4970668;28;20470;-78
2023/09/19 11:34:45;;;;;;;10.77;2.40;;;24.10;1.00;;;;;;4968868;28;20927;-78
2023/09/19 11:38:11;;;;;;;6.70;2.20;;;24.20;1.00;;;;;;4976203;28;20557;-78
2023/09/19 11:40:39;;;;;;;5.63;1.93;;;24.10;1.00;;;;;;4975881;28;20451;-77
2023/09/19 11:43:34;;;;;;;7.47;2.40;;;24.00;1.00;;;;;;4974494;28;20451;-79
2023/09/19 11:46:09;;;;;;;8.53;2.40;;;24.10;1.00;;;;;;4972664;28;20953;-78
2023/09/19 11:48:43;;;;;;;4.83;2.37;;;23.90;1.00;;;;;;4973389;28;20911;-78
2023/09/19 11:51:15;;;;;;;9.47;2.40;;;23.60;1.00;;;;;;4977416;28;20840;-78
2023/09/19 11:53:44;;;;;;;3.67;2.13;;;23.80;1.00;;;;;;4976074;28;20452;-79
2023/09/19 11:56:14;;;;;;;8.13;2.70;;;23.90;1.00;;;;;;4977407;28;20582;-78
2023/09/19 11:58:42;;;;;;;8.50;2.53;;;23.80;1.00;;;;;;4968481;28;20909;-79
2023/09/19 12:01:14;;;;;;;4.37;2.10;;;23.60;1.00;;;;;;4975607;28;20451;-78
2023/09/19 12:03:47;;;;;;;3.90;1.70;;;23.20;1.00;;;;;;4972146;28;20502;-78
2023/09/19 12:06:15;;;;;;;4.10;1.90;;;23.00;1.00;;;;;;4976545;28;20544;-78
2023/09/19 12:08:43;;;;;;;5.67;2.00;;;23.50;1.00;;;;;;4976536;28;20468;-79
2023/09/19 12:11:17;;;;;;;6.77;2.20;;;23.90;1.00;;;;;;4976094;28;20472;-79
2023/09/19 12:13:46;;;;;;;5.43;1.77;;;24.10;1.00;;;;;;4963560;28;20480;-79
2023/09/19 12:16:16;;;;;;;5.67;2.10;;;24.30;1.00;;;;;;4971427;28;20522;-79
2023/09/19 12:18:46;;;;;;;6.70;2.30;;;24.10;1.00;;;;;;4974035;28;20495;-78
2023/09/19 12:21:31;;;;;;;5.23;2.07;;;23.90;1.00;;;;;;4974629;28;20514;-78
2023/09/19 12:24:13;;;;;;;4.80;1.80;;;24.10;1.00;;;;;;4977850;28;20459;-78
2023/09/19 12:26:47;;;;;;;5.80;2.00;;;24.40;1.00;;;;;;4972893;28;20458;-77
2023/09/19 12:29:17;;;;;;;4.33;2.00;;;24.60;1.00;;;;;;4977264;28;20933;-79
2023/09/19 12:31:57;;;;;;;7.53;3.27;;;24.50;1.00;;;;;;4977219;28;20908;-79
2023/09/19 12:34:27;;;;;;;6.40;2.30;;;24.90;17.80;;;;;;4972490;28;20463;-79
2023/09/19 12:37:11;;;;;;;7.03;3.00;;;24.80;98.80;;;;;;4967682;28;20570;-80
2023/09/19 12:39:40;;;;;;;6.33;2.10;;;25.40;95.10;;;;;;4974643;28;20503;-79
2023/09/19 12:42:09;;;;;;;5.80;2.13;;;25.70;95.20;;;;;;4977166;28;20452;-80
2023/09/19 12:44:38;;;;;;;3.70;2.13;;;25.70;91.30;;;;;;4972165;28;20545;-79
2023/09/19 12:47:14;;;;;;;6.23;2.10;;;25.70;90.00;;;;;;4980212;28;20462;-78
2023/09/19 12:50:14;;;;;;;5.90;2.07;;;26.10;90.20;;;;;;4981587;28;20468;-79
2023/09/19 12:52:42;;;;;;;3.50;1.77;;;26.20;87.30;;;;;;4974897;28;20455;-79
2023/09/19 12:55:20;;;;;;;5.30;1.67;;;26.40;83.10;;;;;;4976250;28;20483;-78
2023/09/19 12:57:59;;;;;;;5.50;1.60;;;26.60;89.90;;;;;;4971378;28;20539;-79
2023/09/19 13:00:36;;;;;;;6.87;2.50;;;26.70;83.40;;;;;;4975911;28;20538;-80
2023/09/19 13:03:22;;;;;;;4.40;2.00;;;26.80;82.80;;;;;;4973524;28;20443;-79
2023/09/19 13:05:55;;;;;;;9.00;2.30;;;26.50;85.80;;;;;;4972846;28;20444;-79